KRHV/RHV METAR and TAF weather

Enter ICAO airport designator
Station Type Date Time Source
KRHV METAR 2022/01/29 05:55 UTC NOAA

KRHV 290555Z 00000KT 10SM SCT100 09/05 A3024 RMK LAST


Station Type Date Time Source
KRHV Decoded METAR 2022/01/29 05:55 UTC NOAA

San Jose / Reid / Hillv, CA, United States (KRHV) 37-20N 121-49W
Jan 29, 2022 - 12:55 AM EST / 2022.01.29 0555 UTC
Wind: Calm:0
Visibility: 10 mile(s):0
Sky conditions: partly cloudy
Temperature: 48 F (9 C)
Dew Point: 41 F (5 C)
Relative Humidity: 75%
Pressure (altimeter): 30.24 in. Hg (1024 hPa)
ob: KRHV 290555Z 00000KT 10SM SCT100 09/05 A3024 RMK LAST
cycle: 6

Station Type Date Time Source
KRHV TAF UTC NOAA

Error!

Example: see airport list